Time;durP1;ratioP1;P1;durP2;ratioP2;P2;SDS_P1;SDS_P2;PMS_P1;PMS_P2;Temp;Humidity;BMP_temperature;BMP_pressure;BME280_temperature;BME280_humidity;BME280_pressure;Samples;Min_cycle;Max_cycle;Signal;HPM_P1;HPM_P2
2022/09/13 00:00:03;;;;;;;;;5.25;5.00;;;;;-144.96;100.00;-15791.16;5059922;28;45462;-87
2022/09/13 00:02:28;;;;;;;;;5.20;4.00;;;;;-144.96;100.00;-15791.16;5059473;27;45451;-84
2022/09/13 00:04:54;;;;;;;;;7.75;6.75;;;;;-144.96;100.00;-15791.16;5057772;28;45624;-88
2022/09/13 00:07:19;;;;;;;;;6.00;6.00;;;;;-144.96;100.00;-15791.16;5041313;28;46184;-88
2022/09/13 00:09:45;;;;;;;;;7.00;6.00;;;;;-144.96;100.00;-15791.16;5057595;28;45678;-88
2022/09/13 00:12:10;;;;;;;;;9.25;7.00;;;;;-144.96;100.00;-15791.16;5059288;28;45414;-88
2022/09/13 00:14:35;;;;;;;;;9.00;7.00;;;;;-144.96;100.00;-15791.16;5057994;28;45406;-88
2022/09/13 00:17:01;;;;;;;;;5.00;5.00;;;;;-144.96;100.00;-15791.16;5064297;27;47072;-88
2022/09/13 00:19:26;;;;;;;;;8.50;8.50;;;;;-144.96;100.00;-15791.16;5102239;27;45350;-88
2022/09/13 00:21:52;;;;;;;;;17.75;17.75;;;;;-144.96;100.00;-15791.16;5101849;27;45390;-88
2022/09/13 00:24:17;;;;;;;;;10.00;9.50;;;;;-144.96;100.00;-15791.16;5107444;27;44824;-88
2022/09/13 00:26:42;;;;;;;;;9.25;8.75;;;;;-144.96;100.00;-15791.16;5101532;27;46295;-88
2022/09/13 00:29:08;;;;;;;;;6.25;6.25;;;;;-144.96;100.00;-15791.16;5084017;27;45335;-88
2022/09/13 00:31:33;;;;;;;;;5.75;5.75;;;;;-144.96;100.00;-15791.16;5085759;27;44990;-88
2022/09/13 00:33:59;;;;;;;;;8.50;8.50;;;;;-144.96;100.00;-15791.16;5084323;27;44877;-84
2022/09/13 00:36:24;;;;;;;;;9.00;8.00;;;;;-144.96;100.00;-15791.16;5083244;27;45337;-88
2022/09/13 00:38:50;;;;;;;;;10.50;8.50;;;;;-144.96;100.00;-15791.16;5085158;27;45412;-87
2022/09/13 00:41:18;;;;;;;;;8.00;8.00;;;;;-144.96;100.00;-15791.16;5093160;27;45203;-87
2022/09/13 00:43:59;;;;;;;;;9.60;7.60;;;;;-144.96;100.00;-15791.16;5099479;27;44743;-88
2022/09/13 00:46:37;;;;;;;;;9.00;7.80;;;;;-144.96;100.00;-15791.16;5098839;27;45509;-87
2022/09/13 00:49:20;;;;;;;;;1.60;1.60;;;;;-144.96;100.00;-15791.16;5096172;28;44796;-87
2022/09/13 00:51:59;;;;;;;;;9.40;6.40;;;;;-144.96;100.00;-15791.16;5096996;27;44817;-87
2022/09/13 00:54:34;;;;;;;;;8.00;8.00;;;;;-144.96;100.00;-15791.16;5114633;27;44813;-87
2022/09/13 00:57:03;;;;;;;;;12.00;8.80;;;;;-144.96;100.00;-15791.16;5105456;27;45450;-84
2022/09/13 00:59:35;;;;;;;;;10.20;10.20;;;;;-144.96;100.00;-15791.16;5089896;27;44740;-84
2022/09/13 01:02:03;;;;;;;;;10.00;8.80;;;;;-144.96;100.00;-15791.16;5090346;27;45386;-84
2022/09/13 01:04:31;;;;;;;;;10.00;8.60;;;;;-144.96;100.00;-15791.16;5086493;27;45286;-88
2022/09/13 01:07:02;;;;;;;;;13.20;10.20;;;;;-144.96;100.00;-15791.16;5093935;27;45290;-87
2022/09/13 01:09:32;;;;;;;;;14.00;10.20;;;;;-144.96;100.00;-15791.16;5091036;27;45306;-87
2022/09/13 01:12:07;;;;;;;;;11.20;10.20;;;;;-144.96;100.00;-15791.16;5084100;27;45232;-84
2022/09/13 01:14:33;;;;;;;;;10.20;9.20;;;;;-144.96;100.00;-15791.16;5080483;27;45336;-85
2022/09/13 01:16:59;;;;;;;;;11.40;10.60;;;;;-144.96;100.00;-15791.16;5079517;27;45314;-84
2022/09/13 01:19:25;;;;;;;;;16.80;15.40;;;;;-144.96;100.00;-15791.16;5078586;27;45276;-84
2022/09/13 01:22:32;;;;;;;;;13.50;10.75;;;;;-144.96;100.00;-15791.16;5079149;27;45469;-84
2022/09/13 01:25:16;;;;;;;;;15.20;12.60;;;;;-144.96;100.00;-15791.16;5080727;27;45322;-85
2022/09/13 01:27:52;;;;;;;;;12.60;12.60;;;;;-144.96;100.00;-15791.16;5097661;27;46562;-84
2022/09/13 01:30:34;;;;;;;;;12.60;10.20;;;;;-144.96;100.00;-15791.16;5108263;27;44826;-87
2022/09/13 01:33:00;;;;;;;;;10.80;10.40;;;;;-144.96;100.00;-15791.16;5113238;27;45427;-88
2022/09/13 01:35:53;;;;;;;;;16.80;12.60;;;;;-144.96;100.00;-15791.16;5086237;27;45437;-87
2022/09/13 01:38:43;;;;;;;;;14.00;13.00;;;;;-144.96;100.00;-15791.16;5080117;27;45433;-88
2022/09/13 01:41:09;;;;;;;;;16.60;13.40;;;;;-144.96;100.00;-15791.16;5066083;27;45760;-88
2022/09/13 01:43:56;;;;;;;;;14.60;11.80;;;;;-144.96;100.00;-15791.16;5079029;27;45261;-88
2022/09/13 01:46:43;;;;;;;;;16.40;14.80;;;;;-144.96;100.00;-15791.16;5081507;28;45271;-88
2022/09/13 01:49:33;;;;;;;;;13.40;13.20;;;;;-144.96;100.00;-15791.16;5084955;27;45279;-87
2022/09/13 01:52:04;;;;;;;;;11.00;11.00;;;;;-144.96;100.00;-15791.16;5086894;27;45345;-88
2022/09/13 01:54:56;;;;;;;;;17.80;14.40;;;;;-144.96;100.00;-15791.16;5077815;27;45303;-84
2022/09/13 01:57:31;;;;;;;;;9.40;6.80;;;;;-144.96;100.00;-15791.16;5088498;27;45571;-84
2022/09/13 02:00:07;;;;;;;;;16.40;15.40;;;;;-144.96;100.00;-15791.16;5096509;27;45915;-84
2022/09/13 02:02:54;;;;;;;;;10.80;10.80;;;;;-144.96;100.00;-15791.16;5077864;27;45484;-84
2022/09/13 02:05:38;;;;;;;;;12.20;12.20;;;;;-144.96;100.00;-15791.16;5080178;27;45411;-84
2022/09/13 02:08:32;;;;;;;;;15.50;13.00;;;;;-144.96;100.00;-15791.16;5079660;27;45304;-84
2022/09/13 02:11:21;;;;;;;;;16.40;15.20;;;;;-144.96;100.00;-15791.16;5088846;27;46943;-84
2022/09/13 02:14:13;;;;;;;;;15.20;13.00;;;;;-144.96;100.00;-15791.16;5099785;27;45293;-84
2022/09/13 02:16:50;;;;;;;;;13.80;11.80;;;;;-144.96;100.00;-15791.16;5096010;27;45310;-84
2022/09/13 02:19:38;;;;;;;;;11.20;10.60;;;;;-144.96;100.00;-15791.16;5100534;27;45376;-84
2022/09/13 02:22:08;;;;;;;;;14.40;12.00;;;;;-144.96;100.00;-15791.16;5098001;27;45318;-84
2022/09/13 02:24:44;;;;;;;;;13.20;10.40;;;;;-144.96;100.00;-15791.16;5079905;27;45371;-84
2022/09/13 02:27:15;;;;;;;;;13.40;10.60;;;;;-144.96;100.00;-15791.16;5080585;27;45297;-84
2022/09/13 02:29:44;;;;;;;;;9.60;9.60;;;;;-144.96;100.00;-15791.16;5081142;27;45233;-84
2022/09/13 02:32:17;;;;;;;;;14.40;11.80;;;;;-144.96;100.00;-15791.16;5085515;27;45467;-85
2022/09/13 02:34:48;;;;;;;;;11.60;11.20;;;;;-144.96;100.00;-15791.16;5082723;27;45261;-84
2022/09/13 02:37:14;;;;;;;;;9.00;9.00;;;;;-144.96;100.00;-15791.16;5081864;27;45283;-84
2022/09/13 02:39:45;;;;;;;;;9.75;7.50;;;;;-144.96;100.00;-15791.16;5082148;27;45351;-84
2022/09/13 02:42:18;;;;;;;;;10.60;8.80;;;;;-144.96;100.00;-15791.16;5079985;27;45239;-84
2022/09/13 02:44:58;;;;;;;;;11.80;10.20;;;;;-144.96;100.00;-15791.16;5074928;27;44824;-84
2022/09/13 02:47:58;;;;;;;;;10.40;8.60;;;;;-144.96;100.00;-15791.16;5090573;27;45403;-84
2022/09/13 02:50:52;;;;;;;;;12.40;9.80;;;;;-144.96;100.00;-15791.16;5098557;27;45314;-84
2022/09/13 02:53:20;;;;;;;;;12.20;9.20;;;;;-144.96;100.00;-15791.16;5100072;27;46442;-83
2022/09/13 02:56:04;;;;;;;;;13.40;10.60;;;;;-144.96;100.00;-15791.16;5087154;27;44759;-85
2022/09/13 02:59:01;;;;;;;;;10.40;9.40;;;;;-144.96;100.00;-15791.16;5059650;28;45166;-84
2022/09/13 03:01:27;;;;;;;;;9.80;8.40;;;;;-144.96;100.00;-15791.16;5068449;27;45500;-84
2022/09/13 03:03:55;;;;;;;;;7.50;7.50;;;;;-144.96;100.00;-15791.16;5080128;27;45607;-85
2022/09/13 03:06:25;;;;;;;;;9.80;8.40;;;;;-144.96;100.00;-15791.16;5079792;27;45385;-84
2022/09/13 03:08:52;;;;;;;;;9.00;8.40;;;;;-144.96;100.00;-15791.16;5080181;27;45437;-85
2022/09/13 03:11:54;;;;;;;;;8.40;8.00;;;;;-144.96;100.00;-15791.16;5078160;28;45436;-84
2022/09/13 03:14:39;;;;;;;;;10.20;8.00;;;;;-144.96;100.00;-15791.16;5088346;27;46630;-83
2022/09/13 03:17:13;;;;;;;;;8.00;6.80;;;;;-144.96;100.00;-15791.16;5082917;27;45207;-85
2022/09/13 03:19:51;;;;;;;;;11.00;7.00;;;;;-144.96;100.00;-15791.16;5082752;27;45164;-88
2022/09/13 03:22:46;;;;;;;;;7.00;6.20;;;;;-144.96;100.00;-15791.16;5079177;27;45310;-87
2022/09/13 03:25:39;;;;;;;;;9.40;8.40;;;;;-144.96;100.00;-15791.16;5080562;27;45462;-87
2022/09/13 03:28:32;;;;;;;;;7.80;7.80;;;;;-144.96;100.00;-15791.16;5083383;27;45512;-88
2022/09/13 03:31:13;;;;;;;;;8.60;6.60;;;;;-144.96;100.00;-15791.16;5082703;28;45212;-87
2022/09/13 03:33:45;;;;;;;;;5.60;5.40;;;;;-144.96;100.00;-15791.16;5078214;27;45311;-85
2022/09/13 03:36:21;;;;;;;;;6.80;6.00;;;;;-144.96;100.00;-15791.16;5080027;27;46449;-86
2022/09/13 03:38:55;;;;;;;;;11.20;6.20;;;;;-144.96;100.00;-15791.16;5080081;27;45315;-85
2022/09/13 03:41:31;;;;;;;;;5.60;5.60;;;;;-144.96;100.00;-15791.16;5079715;27;45457;-85
2022/09/13 03:44:01;;;;;;;;;7.80;7.00;;;;;-144.96;100.00;-15791.16;5078149;27;45314;-82
2022/09/13 03:46:33;;;;;;;;;8.60;5.20;;;;;-144.96;100.00;-15791.16;5077553;27;45114;-82
2022/09/13 03:49:07;;;;;;;;;5.60;5.00;;;;;-144.96;100.00;-15791.16;5079692;27;45297;-82
2022/09/13 03:51:34;;;;;;;;;3.20;3.20;;;;;-144.96;100.00;-15791.16;5098639;27;45527;-82
2022/09/13 03:54:03;;;;;;;;;3.00;3.00;;;;;-144.96;100.00;-15791.16;5098664;27;45540;-83
2022/09/13 03:56:30;;;;;;;;;3.40;3.40;;;;;-144.96;100.00;-15791.16;5100579;27;45314;-82
2022/09/13 03:58:55;;;;;;;;;3.00;3.00;;;;;-144.96;100.00;-15791.16;5100480;27;45083;-82
2022/09/13 04:01:22;;;;;;;;;3.25;3.25;;;;;-144.96;100.00;-15791.16;5099205;27;45618;-86
2022/09/13 04:03:49;;;;;;;;;4.60;3.60;;;;;-144.96;100.00;-15791.16;5099371;27;45368;-85
2022/09/13 04:06:14;;;;;;;;;3.80;3.80;;;;;-144.96;100.00;-15791.16;5098731;27;45417;-85
2022/09/13 04:08:40;;;;;;;;;3.75;3.75;;;;;-144.96;100.00;-15791.16;5098860;27;45372;-82
2022/09/13 04:11:08;;;;;;;;;5.00;4.25;;;;;-144.96;100.00;-15791.16;5096951;27;45630;-82
2022/09/13 04:13:35;;;;;;;;;4.20;4.20;;;;;-144.96;100.00;-15791.16;5097399;27;45265;-82
2022/09/13 04:16:04;;;;;;;;;6.20;5.40;;;;;-144.96;100.00;-15791.16;5085877;27;47182;-83
2022/09/13 04:18:30;;;;;;;;;3.40;3.40;;;;;-144.96;100.00;-15791.16;5080395;27;45464;-82
2022/09/13 04:20:57;;;;;;;;;5.50;5.50;;;;;-144.96;100.00;-15791.16;5080687;27;44789;-83
2022/09/13 04:23:24;;;;;;;;;4.00;4.00;;;;;-144.96;100.00;-15791.16;5080088;27;45394;-82
2022/09/13 04:25:52;;;;;;;;;5.00;5.00;;;;;-144.96;100.00;-15791.16;5079067;27;45362;-82
2022/09/13 04:28:18;;;;;;;;;7.20;6.00;;;;;-144.96;100.00;-15791.16;5075767;28;45455;-83
2022/09/13 04:30:44;;;;;;;;;7.00;4.00;;;;;-144.96;100.00;-15791.16;5091111;27;45473;-82
2022/09/13 04:33:10;;;;;;;;;6.00;5.00;;;;;-144.96;100.00;-15791.16;5097079;27;45342;-83
2022/09/13 04:35:36;;;;;;;;;8.50;6.50;;;;;-144.96;100.00;-15791.16;5087229;27;45467;-82
2022/09/13 04:38:02;;;;;;;;;5.25;5.25;;;;;-144.96;100.00;-15791.16;5078838;27;45253;-82
2022/09/13 04:40:28;;;;;;;;;13.20;11.40;;;;;-144.96;100.00;-15791.16;5077454;27;45293;-82
2022/09/13 04:42:53;;;;;;;;;11.60;8.60;;;;;-144.96;100.00;-15791.16;5084221;27;45616;-83
2022/09/13 04:45:19;;;;;;;;;17.00;10.00;;;;;-144.96;100.00;-15791.16;5077073;27;45536;-83
2022/09/13 04:47:50;;;;;;;;;9.25;7.25;;;;;-144.96;100.00;-15791.16;5077359;27;45216;-82
2022/09/13 04:50:15;;;;;;;;;4.40;4.40;;;;;-144.96;100.00;-15791.16;5077115;27;45370;-83
2022/09/13 04:52:41;;;;;;;;;3.75;3.75;;;;;-144.96;100.00;-15791.16;5076043;27;45460;-83
2022/09/13 04:55:06;;;;;;;;;4.75;3.25;;;;;-144.96;100.00;-15791.16;5090692;27;45173;-82
2022/09/13 04:57:32;;;;;;;;;18.00;17.75;;;;;-144.96;100.00;-15791.16;5097409;27;44779;-83
2022/09/13 04:59:57;;;;;;;;;4.25;4.25;;;;;-144.96;100.00;-15791.16;5095763;27;45508;-83
2022/09/13 05:02:22;;;;;;;;;5.75;4.75;;;;;-144.96;100.00;-15791.16;5097404;27;45460;-83
2022/09/13 05:04:48;;;;;;;;;6.25;6.25;;;;;-144.96;100.00;-15791.16;5098120;27;45493;-82
2022/09/13 05:07:13;;;;;;;;;5.00;4.00;;;;;-144.96;100.00;-15791.16;5098075;27;45703;-83
2022/09/13 05:09:38;;;;;;;;;8.50;6.00;;;;;-144.96;100.00;-15791.16;5097621;27;45310;-83
2022/09/13 05:12:04;;;;;;;;;5.50;4.00;;;;;-144.96;100.00;-15791.16;5098096;27;45261;-83
2022/09/13 05:14:29;;;;;;;;;6.00;6.00;;;;;-144.96;100.00;-15791.16;5097963;27;45598;-83
2022/09/13 05:16:55;;;;;;;;;8.25;5.00;;;;;-144.96;100.00;-15791.16;5097451;27;44682;-83
2022/09/13 05:19:20;;;;;;;;;7.00;5.50;;;;;-144.96;100.00;-15791.16;5099040;27;45458;-83
2022/09/13 05:21:45;;;;;;;;;6.75;6.00;;;;;-144.96;100.00;-15791.16;5101891;27;45492;-82
2022/09/13 05:24:11;;;;;;;;;53.33;42.67;;;;;-144.96;100.00;-15791.16;5099211;27;46382;-83
2022/09/13 05:26:36;;;;;;;;;14.75;14.50;;;;;-144.96;100.00;-15791.16;5090569;27;45449;-83
2022/09/13 05:29:03;;;;;;;;;17.75;14.25;;;;;-144.96;100.00;-15791.16;5082509;27;45429;-83
2022/09/13 05:31:34;;;;;;;;;7.60;7.20;;;;;-144.96;100.00;-15791.16;5096828;27;45447;-83
2022/09/13 05:34:06;;;;;;;;;9.80;5.80;;;;;-144.96;100.00;-15791.16;5092029;27;46101;-83
2022/09/13 05:36:32;;;;;;;;;6.00;6.00;;;;;-144.96;100.00;-15791.16;5076980;27;45300;-83
2022/09/13 05:38:59;;;;;;;;;8.00;6.60;;;;;-144.96;100.00;-15791.16;5080752;28;45223;-83
2022/09/13 05:41:25;;;;;;;;;7.60;7.40;;;;;-144.96;100.00;-15791.16;5080216;27;45617;-83
2022/09/13 05:43:50;;;;;;;;;4.75;4.75;;;;;-144.96;100.00;-15791.16;5080239;27;46852;-83
2022/09/13 05:46:18;;;;;;;;;6.25;5.00;;;;;-144.96;100.00;-15791.16;5080040;27;45443;-82
2022/09/13 05:48:44;;;;;;;;;5.80;5.80;;;;;-144.96;100.00;-15791.16;5080357;27;45567;-83
2022/09/13 05:51:11;;;;;;;;;6.25;4.75;;;;;-144.96;100.00;-15791.16;5080379;27;45537;-83
2022/09/13 05:53:40;;;;;;;;;8.40;8.20;;;;;-144.96;100.00;-15791.16;5080422;27;45360;-83
2022/09/13 05:56:14;;;;;;;;;6.00;6.00;;;;;-144.96;100.00;-15791.16;5080439;27;45352;-83
2022/09/13 05:58:44;;;;;;;;;5.20;4.00;;;;;-144.96;100.00;-15791.16;5081731;27;45287;-83
2022/09/13 06:01:11;;;;;;;;;7.40;7.40;;;;;-144.96;100.00;-15791.16;5081081;27;45326;-83
2022/09/13 06:03:38;;;;;;;;;5.80;5.80;;;;;-144.96;100.00;-15791.16;5083971;27;45346;-83
2022/09/13 06:06:04;;;;;;;;;4.60;4.60;;;;;-144.96;100.00;-15791.16;5085661;27;44738;-83
2022/09/13 06:08:32;;;;;;;;;7.60;4.40;;;;;-144.96;100.00;-15791.16;5078412;28;45220;-83
2022/09/13 06:11:03;;;;;;;;;8.00;6.60;;;;;-144.96;100.00;-15791.16;5080412;28;45394;-84
2022/09/13 06:13:29;;;;;;;;;5.00;4.00;;;;;-144.96;100.00;-15791.16;5083708;27;46236;-84
2022/09/13 06:15:56;;;;;;;;;5.00;5.00;;;;;-144.96;100.00;-15791.16;5085695;27;45303;-85
2022/09/13 06:18:23;;;;;;;;;5.00;5.00;;;;;-144.96;100.00;-15791.16;5085991;27;45414;-85
2022/09/13 06:20:48;;;;;;;;;7.40;5.60;;;;;-144.96;100.00;-15791.16;5083026;27;45457;-85
2022/09/13 06:23:14;;;;;;;;;4.00;4.00;;;;;-144.96;100.00;-15791.16;5084286;27;45505;-85
2022/09/13 06:25:39;;;;;;;;;5.50;5.50;;;;;-144.96;100.00;-15791.16;5083522;27;44766;-85
2022/09/13 06:28:05;;;;;;;;;5.75;5.25;;;;;-144.96;100.00;-15791.16;5083667;28;45434;-88
2022/09/13 06:30:31;;;;;;;;;5.50;5.50;;;;;-144.96;100.00;-15791.16;5082742;27;45602;-82
2022/09/13 06:32:56;;;;;;;;;7.00;5.00;;;;;-144.96;100.00;-15791.16;5081906;27;46293;-82
2022/09/13 06:35:22;;;;;;;;;6.00;6.00;;;;;-144.96;100.00;-15791.16;5081614;27;44811;-83
2022/09/13 06:37:47;;;;;;;;;5.75;5.75;;;;;-144.96;100.00;-15791.16;5099692;27;45444;-82
2022/09/13 06:40:13;;;;;;;;;2.25;1.75;;;;;-144.96;100.00;-15791.16;5090699;27;45362;-83
2022/09/13 06:42:38;;;;;;;;;7.00;5.25;;;;;-144.96;100.00;-15791.16;5080804;27;45274;-83
2022/09/13 06:45:05;;;;;;;;;7.00;7.00;;;;;-144.96;100.00;-15791.16;5081141;27;45261;-83
2022/09/13 06:47:31;;;;;;;;;4.80;4.80;;;;;-144.96;100.00;-15791.16;5089299;27;45482;-83
2022/09/13 06:49:56;;;;;;;;;6.75;6.00;;;;;-144.96;100.00;-15791.16;5099467;27;45346;-83
2022/09/13 06:52:22;;;;;;;;;6.75;5.75;;;;;-144.96;100.00;-15791.16;5084153;27;45432;-82
2022/09/13 06:54:47;;;;;;;;;5.00;4.25;;;;;-144.96;100.00;-15791.16;5080074;27;45368;-83
2022/09/13 06:57:12;;;;;;;;;7.50;5.50;;;;;-144.96;100.00;-15791.16;5078851;27;45430;-83
2022/09/13 06:59:38;;;;;;;;;3.50;3.00;;;;;-144.96;100.00;-15791.16;5080434;28;44830;-83
2022/09/13 07:02:03;;;;;;;;;4.25;4.25;;;;;-144.96;100.00;-15791.16;5081145;27;45400;-83
2022/09/13 07:04:32;;;;;;;;;4.50;4.50;;;;;-144.96;100.00;-15791.16;5080261;28;45449;-83
2022/09/13 07:06:58;;;;;;;;;1.80;1.80;;;;;-144.96;100.00;-15791.16;5080827;27;45426;-83
2022/09/13 07:09:24;;;;;;;;;6.40;4.00;;;;;-144.96;100.00;-15791.16;5081852;27;45419;-83
2022/09/13 07:11:52;;;;;;;;;5.00;3.75;;;;;-144.96;100.00;-15791.16;5081565;27;45533;-83
2022/09/13 07:14:21;;;;;;;;;3.80;2.80;;;;;-144.96;100.00;-15791.16;5081513;27;45359;-83
2022/09/13 07:16:47;;;;;;;;;5.60;5.60;;;;;-144.96;100.00;-15791.16;5080605;27;45526;-83
2022/09/13 07:19:21;;;;;;;;;6.20;5.00;;;;;-144.96;100.00;-15791.16;5082658;27;45421;-87
2022/09/13 07:21:48;;;;;;;;;6.20;6.20;;;;;-144.96;100.00;-15791.16;5086301;27;45566;-86
2022/09/13 07:24:18;;;;;;;;;7.00;5.00;;;;;-144.96;100.00;-15791.16;5090584;27;45156;-84
2022/09/13 07:26:44;;;;;;;;;7.20;5.00;;;;;-144.96;100.00;-15791.16;5085928;27;45433;-84
2022/09/13 07:29:17;;;;;;;;;8.40;6.40;;;;;-144.96;100.00;-15791.16;5086437;27;45268;-84
2022/09/13 07:31:45;;;;;;;;;5.00;5.00;;;;;-144.96;100.00;-15791.16;5084494;28;47345;-84
2022/09/13 07:34:19;;;;;;;;;5.20;4.40;;;;;-144.96;100.00;-15791.16;5081778;27;45420;-84
2022/09/13 07:36:45;;;;;;;;;4.20;4.20;;;;;-144.96;100.00;-15791.16;5081016;27;45326;-84
2022/09/13 07:39:11;;;;;;;;;3.80;3.80;;;;;-144.96;100.00;-15791.16;5080706;27;45319;-85
2022/09/13 07:41:37;;;;;;;;;8.20;5.40;;;;;-144.96;100.00;-15791.16;5080380;28;45637;-84
2022/09/13 07:44:05;;;;;;;;;5.25;5.25;;;;;-144.96;100.00;-15791.16;5081375;28;45249;-84
2022/09/13 07:46:32;;;;;;;;;7.40;4.40;;;;;-144.96;100.00;-15791.16;5082621;27;45406;-85
2022/09/13 07:48:59;;;;;;;;;4.60;4.60;;;;;-144.96;100.00;-15791.16;5081742;28;45524;-84
2022/09/13 07:51:30;;;;;;;;;4.20;4.20;;;;;-144.96;100.00;-15791.16;5082754;27;45245;-84
2022/09/13 07:53:57;;;;;;;;;4.60;4.60;;;;;-144.96;100.00;-15791.16;5084353;27;44816;-84
2022/09/13 07:56:26;;;;;;;;;4.20;4.00;;;;;-144.96;100.00;-15791.16;5084016;27;45343;-84
2022/09/13 07:58:53;;;;;;;;;4.20;4.20;;;;;-144.96;100.00;-15791.16;5082157;27;45177;-84
2022/09/13 08:01:23;;;;;;;;;6.80;5.60;;;;;-144.96;100.00;-15791.16;5082816;27;45166;-83
2022/09/13 08:04:03;;;;;;;;;5.40;4.00;;;;;-144.96;100.00;-15791.16;5080783;27;45485;-84
2022/09/13 08:06:31;;;;;;;;;7.20;5.80;;;;;-144.96;100.00;-15791.16;5082398;27;45234;-84
2022/09/13 08:08:57;;;;;;;;;4.00;4.00;;;;;-144.96;100.00;-15791.16;5080562;27;45508;-84
2022/09/13 08:11:32;;;;;;;;;7.25;5.25;;;;;-144.96;100.00;-15791.16;5083296;27;45434;-84
2022/09/13 08:13:58;;;;;;;;;4.40;4.40;;;;;-144.96;100.00;-15791.16;5079892;27;45554;-84
2022/09/13 08:16:26;;;;;;;;;5.40;4.20;;;;;-144.96;100.00;-15791.16;5079614;27;45300;-85
2022/09/13 08:19:00;;;;;;;;;4.60;4.00;;;;;-144.96;100.00;-15791.16;5079644;28;45350;-84
2022/09/13 08:21:30;;;;;;;;;6.60;4.00;;;;;-144.96;100.00;-15791.16;5082508;27;47359;-86
2022/09/13 08:23:58;;;;;;;;;3.80;3.80;;;;;-144.96;100.00;-15791.16;5084594;27;45506;-86
2022/09/13 08:26:24;;;;;;;;;5.60;3.00;;;;;-144.96;100.00;-15791.16;5082248;27;45414;-86
2022/09/13 08:28:55;;;;;;;;;3.25;3.25;;;;;-144.96;100.00;-15791.16;5081734;27;45313;-86
2022/09/13 08:31:21;;;;;;;;;3.00;3.00;;;;;-144.96;100.00;-15791.16;5081904;27;45601;-87
2022/09/13 08:33:47;;;;;;;;;5.40;3.40;;;;;-144.96;100.00;-15791.16;5080253;28;45345;-86
2022/09/13 08:36:13;;;;;;;;;2.00;2.00;;;;;-144.96;100.00;-15791.16;5100311;27;45276;-87
2022/09/13 08:38:48;;;;;;;;;6.20;5.40;;;;;-144.96;100.00;-15791.16;5103675;27;45001;-86
2022/09/13 08:41:32;;;;;;;;;4.60;4.60;;;;;-144.96;100.00;-15791.16;5102760;27;48016;-86
2022/09/13 08:44:08;;;;;;;;;5.80;5.20;;;;;-144.96;100.00;-15791.16;5103226;27;44901;-86
2022/09/13 08:46:44;;;;;;;;;4.80;3.80;;;;;-144.96;100.00;-15791.16;5103067;27;45493;-86
2022/09/13 08:49:28;;;;;;;;;6.00;5.00;;;;;-144.96;100.00;-15791.16;5103090;27;45378;-87
2022/09/13 08:52:00;;;;;;;;;4.60;4.60;;;;;-144.96;100.00;-15791.16;5107623;27;45703;-86
2022/09/13 08:54:25;;;;;;;;;5.00;3.60;;;;;-144.96;100.00;-15791.16;5105887;27;44694;-87
2022/09/13 08:57:18;;;;;;;;;4.00;4.00;;;;;-144.96;100.00;-15791.16;5102172;27;44866;-87
2022/09/13 09:00:12;;;;;;;;;4.00;4.00;;;;;-144.96;100.00;-15791.16;5104868;27;45346;-87
2022/09/13 09:02:47;;;;;;;;;4.00;4.00;;;;;-144.96;100.00;-15791.16;5103698;27;47211;-86
2022/09/13 09:05:20;;;;;;;;;6.60;5.20;;;;;-144.96;100.00;-15791.16;5103470;27;45428;-86
2022/09/13 09:07:51;;;;;;;;;4.00;4.00;;;;;-144.96;100.00;-15791.16;5105245;27;45431;-87
2022/09/13 09:10:31;;;;;;;;;6.00;4.00;;;;;-144.96;100.00;-15791.16;5105729;27;44722;-86
2022/09/13 09:13:30;;;;;;;;;6.60;4.20;;;;;-144.96;100.00;-15791.16;5105280;27;45298;-86
2022/09/13 09:16:32;;;;;;;;;4.00;4.00;;;;;-144.96;100.00;-15791.16;5105881;27;46371;-86
2022/09/13 09:19:14;;;;;;;;;6.20;5.00;;;;;-144.96;100.00;-15791.16;5108293;27;44728;-87
2022/09/13 09:21:48;;;;;;;;;3.00;3.00;;;;;-144.96;100.00;-15791.16;5107829;27;45389;-86
2022/09/13 09:24:21;;;;;;;;;3.80;3.20;;;;;-144.96;100.00;-15791.16;5103355;27;45425;-87
2022/09/13 09:26:46;;;;;;;;;4.80;4.80;;;;;-144.96;100.00;-15791.16;5100866;27;44797;-87
2022/09/13 09:29:15;;;;;;;;;5.00;5.00;;;;;-144.96;100.00;-15791.16;5102001;27;44728;-87
2022/09/13 09:31:57;;;;;;;;;4.40;4.40;;;;;-144.96;100.00;-15791.16;5105346;27;45294;-85
2022/09/13 09:34:41;;;;;;;;;7.00;6.00;;;;;-144.96;100.00;-15791.16;5108422;27;44991;-87
2022/09/13 09:37:27;;;;;;;;;6.00;5.40;;;;;-144.96;100.00;-15791.16;5089955;27;45162;-86
2022/09/13 09:40:03;;;;;;;;;4.60;4.00;;;;;-144.96;100.00;-15791.16;5079584;27;44839;-87
2022/09/13 09:42:34;;;;;;;;;3.60;3.60;;;;;-144.96;100.00;-15791.16;5081210;27;44808;-87
2022/09/13 09:44:59;;;;;;;;;5.40;4.80;;;;;-144.96;100.00;-15791.16;5085264;27;45456;-87
2022/09/13 09:47:29;;;;;;;;;5.00;5.00;;;;;-144.96;100.00;-15791.16;5086312;27;45255;-87
2022/09/13 09:50:08;;;;;;;;;4.40;3.60;;;;;-144.96;100.00;-15791.16;5085111;27;45294;-87
2022/09/13 09:52:43;;;;;;;;;12.80;11.60;;;;;-144.96;100.00;-15791.16;5083585;27;45197;-88
2022/09/13 09:55:24;;;;;;;;;12.80;9.80;;;;;-144.96;100.00;-15791.16;5086150;27;45724;-87
2022/09/13 09:57:58;;;;;;;;;7.20;3.40;;;;;-144.96;100.00;-15791.16;5087176;27;45294;-87
2022/09/13 10:00:28;;;;;;;;;9.20;8.00;;;;;-144.96;100.00;-15791.16;5083527;27;44749;-84
2022/09/13 10:02:58;;;;;;;;;9.20;8.60;;;;;-144.96;100.00;-15791.16;5080718;27;45208;-85
2022/09/13 10:05:25;;;;;;;;;4.20;4.20;;;;;-144.96;100.00;-15791.16;5081585;27;45431;-84
2022/09/13 10:08:04;;;;;;;;;8.00;6.40;;;;;-144.96;100.00;-15791.16;5080243;28;45308;-87
2022/09/13 10:10:42;;;;;;;;;11.20;6.20;;;;;-144.96;100.00;-15791.16;5080040;27;45215;-86
2022/09/13 10:13:17;;;;;;;;;8.20;6.00;;;;;-144.96;100.00;-15791.16;5082234;27;45367;-87
2022/09/13 10:16:00;;;;;;;;;9.20;6.40;;;;;-144.96;100.00;-15791.16;5083852;27;45258;-86
2022/09/13 10:18:27;;;;;;;;;10.20;8.60;;;;;-144.96;100.00;-15791.16;5090669;27;45367;-86
2022/09/13 10:21:20;;;;;;;;;7.20;7.20;;;;;-144.96;100.00;-15791.16;5086162;28;45405;-87
2022/09/13 10:23:49;;;;;;;;;7.20;6.00;;;;;-144.96;100.00;-15791.16;5082254;28;45155;-87
2022/09/13 10:26:24;;;;;;;;;5.20;5.00;;;;;-144.96;100.00;-15791.16;5083383;27;45465;-85
2022/09/13 10:29:02;;;;;;;;;4.60;4.00;;;;;-144.96;100.00;-15791.16;5083676;27;45311;-86
2022/09/13 10:31:40;;;;;;;;;6.20;4.60;;;;;-144.96;100.00;-15791.16;5085768;27;44953;-86
2022/09/13 10:34:27;;;;;;;;;4.20;4.20;;;;;-144.96;100.00;-15791.16;5086730;27;47717;-86
2022/09/13 10:37:13;;;;;;;;;5.60;3.80;;;;;-144.96;100.00;-15791.16;5086735;27;45314;-86
2022/09/13 10:39:50;;;;;;;;;2.40;2.20;;;;;-144.96;100.00;-15791.16;5086285;28;45470;-86
2022/09/13 10:42:22;;;;;;;;;5.20;5.20;;;;;-144.96;100.00;-15791.16;5086544;27;44709;-86
2022/09/13 10:44:56;;;;;;;;;3.60;2.60;;;;;-144.96;100.00;-15791.16;5085132;27;45017;-88
2022/09/13 10:47:30;;;;;;;;;4.80;4.80;;;;;-144.96;100.00;-15791.16;5086223;27;45582;-87
2022/09/13 10:49:58;;;;;;;;;6.40;5.00;;;;;-144.96;100.00;-15791.16;5086162;27;44732;-86
2022/09/13 10:52:23;;;;;;;;;7.00;5.80;;;;;-144.96;100.00;-15791.16;5086532;27;45467;-86
2022/09/13 10:54:48;;;;;;;;;4.00;4.00;;;;;-144.96;100.00;-15791.16;5085581;27;45536;-87
2022/09/13 10:57:33;;;;;;;;;5.00;5.00;;;;;-144.96;100.00;-15791.16;5085545;27;46540;-86
2022/09/13 10:59:59;;;;;;;;;5.40;5.40;;;;;-144.96;100.00;-15791.16;5089436;27;45474;-87
2022/09/13 11:02:57;;;;;;;;;3.75;3.75;;;;;-144.96;100.00;-15791.16;5086370;27;45514;-87
2022/09/13 11:05:36;;;;;;;;;3.20;3.20;;;;;-144.96;100.00;-15791.16;5084397;27;45348;-87
2022/09/13 11:08:45;;;;;;;;;3.80;3.80;;;;;-144.96;100.00;-15791.16;5084529;27;46272;-87
2022/09/13 11:11:29;;;;;;;;;5.40;3.40;;;;;-144.96;100.00;-15791.16;5063456;28;45301;-86
2022/09/13 11:14:13;;;;;;;;;6.20;4.60;;;;;-144.96;100.00;-15791.16;5063288;28;45439;-86
2022/09/13 11:16:59;;;;;;;;;4.60;4.00;;;;;-144.96;100.00;-15791.16;5064253;28;45438;-87
2022/09/13 11:19:46;;;;;;;;;6.00;5.40;;;;;-144.96;100.00;-15791.16;5063375;28;45210;-87
2022/09/13 11:22:29;;;;;;;;;4.60;4.40;;;;;-144.96;100.00;-15791.16;5067630;28;45433;-86